Terminal Aerodrome Forecast
Issued by NWS Buffalo, NY

Home | Current Version | Previous Version | Text Only | Print | Product List | Glossary On
Versions: 1 2 3 4 5 6 7 8 9 10 11 12 13 14 15 16 17 18 19 20 21 22 23 24 25 26 27 28 29 30
000
FTUS41 KBUF 220500
TAFBUF
TAF
KBUF 220532Z 2206/2306 02011KT 5SM -DZ BR OVC007
     FM220800 02010KT P6SM -DZ OVC012
     FM221200 02010KT P6SM OVC012
     FM221900 01010KT P6SM BKN025
     FM222200 01009KT P6SM BKN035=

USA.gov is the U.S. government's official web portal to all federal, state and local government web resources and services.